sensor_id;sensor_type;location;lat;lon;timestamp;P1;durP1;ratioP1;P2;durP2;ratioP2
4468;SDS011;2247;42.666;23.292;2023-04-25T00:00:29;4.07;;;2.90;;
4468;SDS011;2247;42.666;23.292;2023-04-25T00:02:56;5.03;;;2.90;;
4468;SDS011;2247;42.666;23.292;2023-04-25T00:05:25;3.40;;;3.10;;
4468;SDS011;2247;42.666;23.292;2023-04-25T00:07:52;3.47;;;3.00;;
4468;SDS011;2247;42.666;23.292;2023-04-25T00:10:19;3.60;;;2.70;;
4468;SDS011;2247;42.666;23.292;2023-04-25T00:12:46;3.73;;;3.07;;
4468;SDS011;2247;42.666;23.292;2023-04-25T00:15:13;3.27;;;2.97;;
4468;SDS011;2247;42.666;23.292;2023-04-25T00:17:42;2.20;;;2.10;;
4468;SDS011;2247;42.666;23.292;2023-04-25T00:20:11;2.13;;;1.93;;
4468;SDS011;2247;42.666;23.292;2023-04-25T00:22:38;1.70;;;1.60;;
4468;SDS011;2247;42.666;23.292;2023-04-25T00:25:05;1.60;;;1.50;;
4468;SDS011;2247;42.666;23.292;2023-04-25T00:27:32;1.53;;;1.50;;
4468;SDS011;2247;42.666;23.292;2023-04-25T00:29:59;2.20;;;1.20;;
4468;SDS011;2247;42.666;23.292;2023-04-25T00:32:26;1.60;;;1.50;;
4468;SDS011;2247;42.666;23.292;2023-04-25T00:34:54;2.00;;;1.90;;
4468;SDS011;2247;42.666;23.292;2023-04-25T00:37:22;2.00;;;1.90;;
4468;SDS011;2247;42.666;23.292;2023-04-25T00:39:50;2.27;;;2.10;;
4468;SDS011;2247;42.666;23.292;2023-04-25T00:42:18;2.63;;;2.53;;
4468;SDS011;2247;42.666;23.292;2023-04-25T00:44:45;3.87;;;3.20;;
4468;SDS011;2247;42.666;23.292;2023-04-25T00:47:14;6.40;;;3.53;;
4468;SDS011;2247;42.666;23.292;2023-04-25T00:49:41;4.43;;;3.53;;
4468;SDS011;2247;42.666;23.292;2023-04-25T00:52:10;4.37;;;3.83;;
4468;SDS011;2247;42.666;23.292;2023-04-25T00:54:37;3.70;;;3.40;;
4468;SDS011;2247;42.666;23.292;2023-04-25T00:57:05;3.87;;;3.57;;
4468;SDS011;2247;42.666;23.292;2023-04-25T00:59:31;4.00;;;3.30;;
4468;SDS011;2247;42.666;23.292;2023-04-25T01:01:59;3.37;;;3.17;;
4468;SDS011;2247;42.666;23.292;2023-04-25T01:04:26;4.07;;;3.67;;
4468;SDS011;2247;42.666;23.292;2023-04-25T01:06:53;4.93;;;4.43;;
4468;SDS011;2247;42.666;23.292;2023-04-25T01:09:22;5.13;;;4.60;;
4468;SDS011;2247;42.666;23.292;2023-04-25T01:11:49;5.00;;;4.60;;
4468;SDS011;2247;42.666;23.292;2023-04-25T01:14:16;6.53;;;5.83;;
4468;SDS011;2247;42.666;23.292;2023-04-25T01:16:42;7.70;;;5.47;;
4468;SDS011;2247;42.666;23.292;2023-04-25T01:19:09;6.07;;;5.47;;
4468;SDS011;2247;42.666;23.292;2023-04-25T01:21:38;6.33;;;5.40;;
4468;SDS011;2247;42.666;23.292;2023-04-25T01:24:05;5.90;;;5.20;;
4468;SDS011;2247;42.666;23.292;2023-04-25T01:26:33;8.80;;;5.33;;
4468;SDS011;2247;42.666;23.292;2023-04-25T01:29:03;6.30;;;5.07;;
4468;SDS011;2247;42.666;23.292;2023-04-25T01:31:30;6.97;;;5.63;;
4468;SDS011;2247;42.666;23.292;2023-04-25T01:33:59;7.37;;;5.80;;
4468;SDS011;2247;42.666;23.292;2023-04-25T01:36:26;6.20;;;5.60;;
4468;SDS011;2247;42.666;23.292;2023-04-25T01:38:55;6.20;;;5.60;;
4468;SDS011;2247;42.666;23.292;2023-04-25T01:41:23;6.00;;;5.37;;
4468;SDS011;2247;42.666;23.292;2023-04-25T01:43:50;10.33;;;5.67;;
4468;SDS011;2247;42.666;23.292;2023-04-25T01:46:17;6.83;;;6.00;;
4468;SDS011;2247;42.666;23.292;2023-04-25T01:48:44;7.50;;;5.77;;
4468;SDS011;2247;42.666;23.292;2023-04-25T01:51:11;7.47;;;5.83;;
4468;SDS011;2247;42.666;23.292;2023-04-25T01:53:38;6.17;;;5.57;;
4468;SDS011;2247;42.666;23.292;2023-04-25T01:56:06;8.20;;;6.30;;
4468;SDS011;2247;42.666;23.292;2023-04-25T01:58:33;10.00;;;5.97;;
4468;SDS011;2247;42.666;23.292;2023-04-25T02:01:00;6.23;;;5.63;;
4468;SDS011;2247;42.666;23.292;2023-04-25T02:03:27;7.20;;;6.03;;
4468;SDS011;2247;42.666;23.292;2023-04-25T02:05:55;7.10;;;5.67;;
4468;SDS011;2247;42.666;23.292;2023-04-25T02:08:22;9.43;;;6.73;;
4468;SDS011;2247;42.666;23.292;2023-04-25T02:10:51;5.70;;;5.20;;
4468;SDS011;2247;42.666;23.292;2023-04-25T02:13:19;7.40;;;6.70;;
4468;SDS011;2247;42.666;23.292;2023-04-25T02:15:46;7.53;;;6.20;;
4468;SDS011;2247;42.666;23.292;2023-04-25T02:18:13;8.30;;;6.10;;
4468;SDS011;2247;42.666;23.292;2023-04-25T02:20:41;7.87;;;6.70;;
4468;SDS011;2247;42.666;23.292;2023-04-25T02:23:08;7.00;;;5.77;;
4468;SDS011;2247;42.666;23.292;2023-04-25T02:25:35;4.77;;;4.37;;
4468;SDS011;2247;42.666;23.292;2023-04-25T02:28:02;7.53;;;4.80;;
4468;SDS011;2247;42.666;23.292;2023-04-25T02:30:30;5.80;;;5.20;;
4468;SDS011;2247;42.666;23.292;2023-04-25T02:32:57;5.20;;;4.70;;
4468;SDS011;2247;42.666;23.292;2023-04-25T02:35:24;6.30;;;4.93;;
4468;SDS011;2247;42.666;23.292;2023-04-25T02:37:50;6.70;;;5.13;;
4468;SDS011;2247;42.666;23.292;2023-04-25T02:40:17;5.40;;;4.90;;
4468;SDS011;2247;42.666;23.292;2023-04-25T02:42:44;5.73;;;5.10;;
4468;SDS011;2247;42.666;23.292;2023-04-25T02:45:11;6.17;;;5.10;;
4468;SDS011;2247;42.666;23.292;2023-04-25T02:47:40;7.20;;;6.07;;
4468;SDS011;2247;42.666;23.292;2023-04-25T02:50:07;6.87;;;6.03;;
4468;SDS011;2247;42.666;23.292;2023-04-25T02:52:34;7.40;;;6.27;;
4468;SDS011;2247;42.666;23.292;2023-04-25T02:55:01;6.93;;;5.73;;
4468;SDS011;2247;42.666;23.292;2023-04-25T02:57:28;8.10;;;7.07;;
4468;SDS011;2247;42.666;23.292;2023-04-25T02:59:55;8.83;;;5.73;;
4468;SDS011;2247;42.666;23.292;2023-04-25T03:02:21;6.47;;;5.77;;
4468;SDS011;2247;42.666;23.292;2023-04-25T03:04:49;7.10;;;6.40;;
4468;SDS011;2247;42.666;23.292;2023-04-25T03:07:17;6.13;;;5.53;;
4468;SDS011;2247;42.666;23.292;2023-04-25T03:09:44;6.53;;;5.90;;
4468;SDS011;2247;42.666;23.292;2023-04-25T03:12:12;6.83;;;5.10;;
4468;SDS011;2247;42.666;23.292;2023-04-25T03:14:38;9.37;;;7.10;;
4468;SDS011;2247;42.666;23.292;2023-04-25T03:17:06;6.40;;;5.80;;
4468;SDS011;2247;42.666;23.292;2023-04-25T03:19:33;8.33;;;6.83;;
4468;SDS011;2247;42.666;23.292;2023-04-25T03:22:01;7.03;;;6.07;;
4468;SDS011;2247;42.666;23.292;2023-04-25T03:24:28;9.37;;;6.60;;
4468;SDS011;2247;42.666;23.292;2023-04-25T03:26:54;6.83;;;6.13;;
4468;SDS011;2247;42.666;23.292;2023-04-25T03:29:21;6.30;;;5.47;;
4468;SDS011;2247;42.666;23.292;2023-04-25T03:31:50;8.73;;;5.90;;
4468;SDS011;2247;42.666;23.292;2023-04-25T03:34:18;6.63;;;5.93;;
4468;SDS011;2247;42.666;23.292;2023-04-25T03:36:46;6.90;;;5.97;;
4468;SDS011;2247;42.666;23.292;2023-04-25T03:39:14;9.50;;;6.60;;
4468;SDS011;2247;42.666;23.292;2023-04-25T03:41:41;7.37;;;6.57;;
4468;SDS011;2247;42.666;23.292;2023-04-25T03:44:08;9.10;;;7.40;;
4468;SDS011;2247;42.666;23.292;2023-04-25T03:46:35;11.47;;;7.33;;
4468;SDS011;2247;42.666;23.292;2023-04-25T03:49:02;10.43;;;6.90;;
4468;SDS011;2247;42.666;23.292;2023-04-25T03:51:29;7.43;;;6.47;;
4468;SDS011;2247;42.666;23.292;2023-04-25T03:53:56;10.50;;;6.73;;
4468;SDS011;2247;42.666;23.292;2023-04-25T03:56:25;7.77;;;6.70;;
4468;SDS011;2247;42.666;23.292;2023-04-25T03:58:51;8.37;;;7.30;;
4468;SDS011;2247;42.666;23.292;2023-04-25T04:01:18;7.60;;;6.20;;
4468;SDS011;2247;42.666;23.292;2023-04-25T04:03:46;7.03;;;6.10;;
4468;SDS011;2247;42.666;23.292;2023-04-25T04:06:12;8.20;;;6.10;;
4468;SDS011;2247;42.666;23.292;2023-04-25T04:08:40;6.77;;;5.20;;
4468;SDS011;2247;42.666;23.292;2023-04-25T04:11:06;7.07;;;6.00;;
4468;SDS011;2247;42.666;23.292;2023-04-25T04:13:34;6.30;;;5.70;;
4468;SDS011;2247;42.666;23.292;2023-04-25T04:16:01;6.20;;;5.30;;
4468;SDS011;2247;42.666;23.292;2023-04-25T04:18:29;6.87;;;4.77;;
4468;SDS011;2247;42.666;23.292;2023-04-25T04:20:56;5.70;;;5.20;;
4468;SDS011;2247;42.666;23.292;2023-04-25T04:23:23;5.57;;;5.00;;
4468;SDS011;2247;42.666;23.292;2023-04-25T04:25:52;5.37;;;4.87;;
4468;SDS011;2247;42.666;23.292;2023-04-25T04:28:19;4.83;;;4.20;;
4468;SDS011;2247;42.666;23.292;2023-04-25T04:30:48;6.53;;;5.77;;
4468;SDS011;2247;42.666;23.292;2023-04-25T04:33:16;5.30;;;4.80;;
4468;SDS011;2247;42.666;23.292;2023-04-25T04:35:44;6.07;;;5.47;;
4468;SDS011;2247;42.666;23.292;2023-04-25T04:38:11;8.00;;;6.00;;
4468;SDS011;2247;42.666;23.292;2023-04-25T04:40:40;9.00;;;5.87;;
4468;SDS011;2247;42.666;23.292;2023-04-25T04:43:08;7.93;;;6.63;;
4468;SDS011;2247;42.666;23.292;2023-04-25T04:45:35;6.93;;;6.23;;
4468;SDS011;2247;42.666;23.292;2023-04-25T04:48:05;7.43;;;6.30;;
4468;SDS011;2247;42.666;23.292;2023-04-25T04:50:32;8.30;;;6.33;;
4468;SDS011;2247;42.666;23.292;2023-04-25T04:52:59;6.20;;;5.60;;
4468;SDS011;2247;42.666;23.292;2023-04-25T04:55:25;6.30;;;5.70;;
4468;SDS011;2247;42.666;23.292;2023-04-25T04:57:53;11.50;;;6.07;;
4468;SDS011;2247;42.666;23.292;2023-04-25T05:00:19;11.80;;;5.93;;
4468;SDS011;2247;42.666;23.292;2023-04-25T05:02:47;6.37;;;5.10;;
4468;SDS011;2247;42.666;23.292;2023-04-25T05:05:15;6.57;;;5.87;;
4468;SDS011;2247;42.666;23.292;2023-04-25T05:07:42;10.90;;;5.53;;
4468;SDS011;2247;42.666;23.292;2023-04-25T05:10:10;8.17;;;6.10;;
4468;SDS011;2247;42.666;23.292;2023-04-25T05:12:37;7.53;;;6.60;;
4468;SDS011;2247;42.666;23.292;2023-04-25T05:15:04;6.43;;;5.83;;
4468;SDS011;2247;42.666;23.292;2023-04-25T05:17:32;6.70;;;6.07;;
4468;SDS011;2247;42.666;23.292;2023-04-25T05:19:59;8.03;;;6.70;;
4468;SDS011;2247;42.666;23.292;2023-04-25T05:22:28;7.00;;;6.30;;
4468;SDS011;2247;42.666;23.292;2023-04-25T05:24:54;8.60;;;6.30;;
4468;SDS011;2247;42.666;23.292;2023-04-25T05:27:21;13.23;;;7.30;;
4468;SDS011;2247;42.666;23.292;2023-04-25T05:32:23;8.00;;;6.53;;
4468;SDS011;2247;42.666;23.292;2023-04-25T05:34:51;9.93;;;7.20;;
4468;SDS011;2247;42.666;23.292;2023-04-25T05:37:17;14.83;;;7.80;;
4468;SDS011;2247;42.666;23.292;2023-04-25T05:39:46;9.70;;;7.47;;
4468;SDS011;2247;42.666;23.292;2023-04-25T05:42:12;12.60;;;7.77;;
4468;SDS011;2247;42.666;23.292;2023-04-25T05:44:39;10.27;;;7.50;;
4468;SDS011;2247;42.666;23.292;2023-04-25T05:47:06;10.30;;;7.43;;
4468;SDS011;2247;42.666;23.292;2023-04-25T05:49:33;8.60;;;7.20;;
4468;SDS011;2247;42.666;23.292;2023-04-25T05:52:00;11.57;;;8.00;;
4468;SDS011;2247;42.666;23.292;2023-04-25T05:54:27;11.37;;;9.07;;
4468;SDS011;2247;42.666;23.292;2023-04-25T05:56:55;14.70;;;9.23;;
4468;SDS011;2247;42.666;23.292;2023-04-25T05:59:22;14.50;;;10.53;;
4468;SDS011;2247;42.666;23.292;2023-04-25T06:01:49;14.03;;;8.80;;
4468;SDS011;2247;42.666;23.292;2023-04-25T06:04:16;10.23;;;9.13;;
4468;SDS011;2247;42.666;23.292;2023-04-25T06:06:43;11.30;;;9.27;;
4468;SDS011;2247;42.666;23.292;2023-04-25T06:09:10;10.67;;;8.60;;
4468;SDS011;2247;42.666;23.292;2023-04-25T06:11:37;12.23;;;9.17;;
4468;SDS011;2247;42.666;23.292;2023-04-25T06:14:05;12.93;;;8.93;;
4468;SDS011;2247;42.666;23.292;2023-04-25T06:16:32;14.60;;;9.50;;
4468;SDS011;2247;42.666;23.292;2023-04-25T06:18:59;9.90;;;8.90;;
4468;SDS011;2247;42.666;23.292;2023-04-25T06:21:26;10.27;;;8.80;;
4468;SDS011;2247;42.666;23.292;2023-04-25T06:23:53;9.93;;;8.60;;
4468;SDS011;2247;42.666;23.292;2023-04-25T06:26:20;14.23;;;8.07;;
4468;SDS011;2247;42.666;23.292;2023-04-25T06:28:47;14.00;;;7.50;;
4468;SDS011;2247;42.666;23.292;2023-04-25T06:31:16;10.03;;;7.90;;
4468;SDS011;2247;42.666;23.292;2023-04-25T06:33:43;10.20;;;7.87;;
4468;SDS011;2247;42.666;23.292;2023-04-25T06:36:10;10.63;;;7.30;;
4468;SDS011;2247;42.666;23.292;2023-04-25T06:38:37;11.13;;;7.73;;
4468;SDS011;2247;42.666;23.292;2023-04-25T06:41:04;12.67;;;8.10;;
4468;SDS011;2247;42.666;23.292;2023-04-25T06:43:30;9.80;;;8.40;;
4468;SDS011;2247;42.666;23.292;2023-04-25T06:45:58;13.97;;;7.30;;
4468;SDS011;2247;42.666;23.292;2023-04-25T06:48:27;18.20;;;9.70;;
4468;SDS011;2247;42.666;23.292;2023-04-25T06:50:55;7.93;;;6.53;;
4468;SDS011;2247;42.666;23.292;2023-04-25T06:53:22;11.30;;;8.00;;
4468;SDS011;2247;42.666;23.292;2023-04-25T06:55:49;13.30;;;7.67;;
4468;SDS011;2247;42.666;23.292;2023-04-25T06:58:16;9.17;;;6.63;;
4468;SDS011;2247;42.666;23.292;2023-04-25T07:00:43;7.93;;;6.10;;
4468;SDS011;2247;42.666;23.292;2023-04-25T07:03:10;10.03;;;6.67;;
4468;SDS011;2247;42.666;23.292;2023-04-25T07:05:38;13.70;;;7.60;;
4468;SDS011;2247;42.666;23.292;2023-04-25T07:08:05;13.73;;;7.07;;
4468;SDS011;2247;42.666;23.292;2023-04-25T07:10:32;12.37;;;8.43;;
4468;SDS011;2247;42.666;23.292;2023-04-25T07:12:59;11.37;;;8.13;;
4468;SDS011;2247;42.666;23.292;2023-04-25T07:15:25;11.13;;;8.00;;
4468;SDS011;2247;42.666;23.292;2023-04-25T07:17:52;12.07;;;8.07;;
4468;SDS011;2247;42.666;23.292;2023-04-25T07:20:19;10.23;;;7.43;;
4468;SDS011;2247;42.666;23.292;2023-04-25T07:22:47;12.60;;;7.90;;
4468;SDS011;2247;42.666;23.292;2023-04-25T07:25:15;11.23;;;7.07;;
4468;SDS011;2247;42.666;23.292;2023-04-25T07:27:42;11.47;;;8.10;;
4468;SDS011;2247;42.666;23.292;2023-04-25T07:30:09;13.27;;;7.63;;
4468;SDS011;2247;42.666;23.292;2023-04-25T07:32:37;13.63;;;8.83;;
4468;SDS011;2247;42.666;23.292;2023-04-25T07:35:04;9.43;;;7.37;;
4468;SDS011;2247;42.666;23.292;2023-04-25T07:37:33;9.07;;;7.63;;
4468;SDS011;2247;42.666;23.292;2023-04-25T07:40:01;12.27;;;7.07;;
4468;SDS011;2247;42.666;23.292;2023-04-25T07:42:29;10.73;;;7.03;;
4468;SDS011;2247;42.666;23.292;2023-04-25T07:44:56;10.97;;;7.80;;
4468;SDS011;2247;42.666;23.292;2023-04-25T07:47:23;11.60;;;6.80;;
4468;SDS011;2247;42.666;23.292;2023-04-25T07:49:50;11.10;;;6.27;;
4468;SDS011;2247;42.666;23.292;2023-04-25T07:52:17;10.20;;;7.60;;
4468;SDS011;2247;42.666;23.292;2023-04-25T07:54:44;20.87;;;6.50;;
4468;SDS011;2247;42.666;23.292;2023-04-25T07:57:13;16.60;;;6.70;;
4468;SDS011;2247;42.666;23.292;2023-04-25T07:59:42;19.60;;;6.90;;
4468;SDS011;2247;42.666;23.292;2023-04-25T08:02:09;12.00;;;6.70;;
4468;SDS011;2247;42.666;23.292;2023-04-25T08:04:36;9.93;;;6.33;;
4468;SDS011;2247;42.666;23.292;2023-04-25T08:07:02;14.97;;;6.40;;
4468;SDS011;2247;42.666;23.292;2023-04-25T08:09:29;6.83;;;5.83;;
4468;SDS011;2247;42.666;23.292;2023-04-25T08:11:59;10.50;;;6.40;;
4468;SDS011;2247;42.666;23.292;2023-04-25T08:14:28;10.50;;;6.43;;
4468;SDS011;2247;42.666;23.292;2023-04-25T08:17:01;8.00;;;6.43;;
4468;SDS011;2247;42.666;23.292;2023-04-25T08:19:28;9.00;;;6.70;;
4468;SDS011;2247;42.666;23.292;2023-04-25T08:21:55;7.50;;;5.57;;
4468;SDS011;2247;42.666;23.292;2023-04-25T08:24:22;9.60;;;5.73;;
4468;SDS011;2247;42.666;23.292;2023-04-25T08:26:49;10.93;;;5.23;;
4468;SDS011;2247;42.666;23.292;2023-04-25T08:29:16;9.83;;;5.80;;
4468;SDS011;2247;42.666;23.292;2023-04-25T08:31:44;9.90;;;5.20;;
4468;SDS011;2247;42.666;23.292;2023-04-25T08:34:11;6.97;;;5.10;;
4468;SDS011;2247;42.666;23.292;2023-04-25T08:36:38;5.90;;;5.30;;
4468;SDS011;2247;42.666;23.292;2023-04-25T08:39:05;7.63;;;6.00;;
4468;SDS011;2247;42.666;23.292;2023-04-25T08:41:32;6.57;;;5.10;;
4468;SDS011;2247;42.666;23.292;2023-04-25T08:43:59;9.40;;;5.60;;
4468;SDS011;2247;42.666;23.292;2023-04-25T08:46:27;9.37;;;5.17;;
4468;SDS011;2247;42.666;23.292;2023-04-25T08:48:58;13.50;;;4.90;;
4468;SDS011;2247;42.666;23.292;2023-04-25T08:51:27;5.00;;;4.23;;
4468;SDS011;2247;42.666;23.292;2023-04-25T08:53:59;6.33;;;4.80;;
4468;SDS011;2247;42.666;23.292;2023-04-25T08:56:36;5.53;;;4.40;;
4468;SDS011;2247;42.666;23.292;2023-04-25T08:59:05;4.43;;;4.03;;
4468;SDS011;2247;42.666;23.292;2023-04-25T09:01:33;6.10;;;4.43;;
4468;SDS011;2247;42.666;23.292;2023-04-25T09:04:01;9.73;;;4.20;;
4468;SDS011;2247;42.666;23.292;2023-04-25T09:06:30;6.43;;;4.40;;
4468;SDS011;2247;42.666;23.292;2023-04-25T09:09:01;7.00;;;4.57;;
4468;SDS011;2247;42.666;23.292;2023-04-25T09:11:30;10.77;;;5.07;;
4468;SDS011;2247;42.666;23.292;2023-04-25T09:14:10;7.97;;;5.33;;
4468;SDS011;2247;42.666;23.292;2023-04-25T09:16:58;6.30;;;5.10;;
4468;SDS011;2247;42.666;23.292;2023-04-25T09:19:29;8.07;;;5.30;;
4468;SDS011;2247;42.666;23.292;2023-04-25T09:21:57;10.90;;;5.17;;
4468;SDS011;2247;42.666;23.292;2023-04-25T09:24:32;7.33;;;4.70;;
4468;SDS011;2247;42.666;23.292;2023-04-25T09:27:02;5.53;;;4.40;;
4468;SDS011;2247;42.666;23.292;2023-04-25T09:29:30;2.70;;;2.47;;
4468;SDS011;2247;42.666;23.292;2023-04-25T09:32:10;4.80;;;3.17;;
4468;SDS011;2247;42.666;23.292;2023-04-25T09:34:40;3.87;;;2.20;;
4468;SDS011;2247;42.666;23.292;2023-04-25T09:37:08;4.00;;;3.60;;
4468;SDS011;2247;42.666;23.292;2023-04-25T09:39:36;6.70;;;4.33;;
4468;SDS011;2247;42.666;23.292;2023-04-25T09:42:03;8.83;;;4.13;;
4468;SDS011;2247;42.666;23.292;2023-04-25T09:44:30;4.53;;;3.97;;
4468;SDS011;2247;42.666;23.292;2023-04-25T09:46:57;4.70;;;3.90;;
4468;SDS011;2247;42.666;23.292;2023-04-25T09:49:24;13.07;;;3.23;;
4468;SDS011;2247;42.666;23.292;2023-04-25T09:51:56;4.80;;;3.90;;
4468;SDS011;2247;42.666;23.292;2023-04-25T09:54:25;5.87;;;3.70;;
4468;SDS011;2247;42.666;23.292;2023-04-25T09:56:53;10.17;;;4.80;;
4468;SDS011;2247;42.666;23.292;2023-04-25T09:59:20;3.07;;;2.80;;
4468;SDS011;2247;42.666;23.292;2023-04-25T10:01:48;2.80;;;2.00;;
4468;SDS011;2247;42.666;23.292;2023-04-25T10:04:18;2.03;;;1.93;;
4468;SDS011;2247;42.666;23.292;2023-04-25T10:06:48;5.37;;;2.53;;
4468;SDS011;2247;42.666;23.292;2023-04-25T10:09:19;3.73;;;2.13;;
4468;SDS011;2247;42.666;23.292;2023-04-25T10:11:48;3.37;;;2.57;;
4468;SDS011;2247;42.666;23.292;2023-04-25T10:14:16;3.53;;;1.70;;
4468;SDS011;2247;42.666;23.292;2023-04-25T10:16:45;2.07;;;1.70;;
4468;SDS011;2247;42.666;23.292;2023-04-25T10:19:12;2.10;;;1.63;;
4468;SDS011;2247;42.666;23.292;2023-04-25T10:21:40;1.40;;;1.30;;
4468;SDS011;2247;42.666;23.292;2023-04-25T10:24:14;2.70;;;1.93;;
4468;SDS011;2247;42.666;23.292;2023-04-25T10:26:44;4.57;;;1.90;;
4468;SDS011;2247;42.666;23.292;2023-04-25T10:29:12;3.40;;;2.23;;
4468;SDS011;2247;42.666;23.292;2023-04-25T10:31:48;1.90;;;1.70;;
4468;SDS011;2247;42.666;23.292;2023-04-25T10:34:15;2.10;;;1.60;;
4468;SDS011;2247;42.666;23.292;2023-04-25T10:36:42;1.60;;;1.50;;
4468;SDS011;2247;42.666;23.292;2023-04-25T10:39:09;2.10;;;1.40;;
4468;SDS011;2247;42.666;23.292;2023-04-25T10:41:47;1.30;;;1.20;;
4468;SDS011;2247;42.666;23.292;2023-04-25T10:44:18;1.40;;;1.30;;
4468;SDS011;2247;42.666;23.292;2023-04-25T10:46:45;6.47;;;1.53;;
4468;SDS011;2247;42.666;23.292;2023-04-25T10:49:28;6.70;;;1.87;;
4468;SDS011;2247;42.666;23.292;2023-04-25T10:52:10;3.27;;;1.50;;
4468;SDS011;2247;42.666;23.292;2023-04-25T10:54:40;2.13;;;1.30;;
4468;SDS011;2247;42.666;23.292;2023-04-25T10:57:15;5.37;;;1.10;;
4468;SDS011;2247;42.666;23.292;2023-04-25T10:59:53;1.10;;;1.10;;
4468;SDS011;2247;42.666;23.292;2023-04-25T11:02:20;4.67;;;1.07;;
4468;SDS011;2247;42.666;23.292;2023-04-25T11:04:52;1.10;;;1.10;;
4468;SDS011;2247;42.666;23.292;2023-04-25T11:07:23;3.90;;;1.20;;
4468;SDS011;2247;42.666;23.292;2023-04-25T11:09:55;0.90;;;0.90;;
4468;SDS011;2247;42.666;23.292;2023-04-25T11:12:24;2.00;;;0.97;;
4468;SDS011;2247;42.666;23.292;2023-04-25T11:14:51;2.03;;;0.90;;
4468;SDS011;2247;42.666;23.292;2023-04-25T11:17:26;0.90;;;0.90;;
4468;SDS011;2247;42.666;23.292;2023-04-25T11:19:53;2.20;;;0.90;;
4468;SDS011;2247;42.666;23.292;2023-04-25T11:22:21;1.33;;;1.23;;
4468;SDS011;2247;42.666;23.292;2023-04-25T11:24:48;1.00;;;1.00;;
4468;SDS011;2247;42.666;23.292;2023-04-25T11:27:15;1.10;;;1.10;;
4468;SDS011;2247;42.666;23.292;2023-04-25T11:29:44;1.17;;;1.10;;
4468;SDS011;2247;42.666;23.292;2023-04-25T11:32:13;3.17;;;1.40;;
4468;SDS011;2247;42.666;23.292;2023-04-25T11:34:43;1.33;;;1.23;;
4468;SDS011;2247;42.666;23.292;2023-04-25T11:37:11;1.63;;;1.30;;
4468;SDS011;2247;42.666;23.292;2023-04-25T11:39:42;4.10;;;1.20;;
4468;SDS011;2247;42.666;23.292;2023-04-25T11:42:11;1.20;;;1.20;;
4468;SDS011;2247;42.666;23.292;2023-04-25T11:44:38;1.00;;;1.00;;
4468;SDS011;2247;42.666;23.292;2023-04-25T11:47:07;1.40;;;1.20;;
4468;SDS011;2247;42.666;23.292;2023-04-25T11:49:35;3.93;;;1.20;;
4468;SDS011;2247;42.666;23.292;2023-04-25T11:52:02;5.00;;;1.40;;
4468;SDS011;2247;42.666;23.292;2023-04-25T11:54:29;0.90;;;0.90;;
4468;SDS011;2247;42.666;23.292;2023-04-25T11:56:56;24.97;;;1.57;;
4468;SDS011;2247;42.666;23.292;2023-04-25T11:59:24;1.00;;;1.00;;
4468;SDS011;2247;42.666;23.292;2023-04-25T12:01:51;6.10;;;1.10;;
4468;SDS011;2247;42.666;23.292;2023-04-25T12:04:21;2.40;;;1.27;;
4468;SDS011;2247;42.666;23.292;2023-04-25T12:06:49;2.10;;;1.50;;
4468;SDS011;2247;42.666;23.292;2023-04-25T12:09:16;1.60;;;1.23;;
4468;SDS011;2247;42.666;23.292;2023-04-25T12:11:47;1.40;;;1.30;;
4468;SDS011;2247;42.666;23.292;2023-04-25T12:14:20;1.53;;;1.17;;
4468;SDS011;2247;42.666;23.292;2023-04-25T12:16:49;1.97;;;1.40;;
4468;SDS011;2247;42.666;23.292;2023-04-25T12:19:16;7.70;;;1.57;;
4468;SDS011;2247;42.666;23.292;2023-04-25T12:21:47;1.93;;;1.53;;
4468;SDS011;2247;42.666;23.292;2023-04-25T12:24:16;1.70;;;1.60;;
4468;SDS011;2247;42.666;23.292;2023-04-25T12:26:48;1.53;;;1.37;;
4468;SDS011;2247;42.666;23.292;2023-04-25T12:29:17;1.50;;;1.40;;
4468;SDS011;2247;42.666;23.292;2023-04-25T12:31:45;1.20;;;1.13;;
4468;SDS011;2247;42.666;23.292;2023-04-25T12:34:12;1.20;;;1.10;;
4468;SDS011;2247;42.666;23.292;2023-04-25T12:36:39;2.40;;;1.20;;
4468;SDS011;2247;42.666;23.292;2023-04-25T12:39:07;4.93;;;1.43;;
4468;SDS011;2247;42.666;23.292;2023-04-25T12:41:35;5.20;;;1.70;;
4468;SDS011;2247;42.666;23.292;2023-04-25T12:44:02;5.73;;;1.50;;
4468;SDS011;2247;42.666;23.292;2023-04-25T12:46:29;2.30;;;1.50;;
4468;SDS011;2247;42.666;23.292;2023-04-25T12:48:56;3.93;;;1.60;;
4468;SDS011;2247;42.666;23.292;2023-04-25T12:51:23;2.63;;;1.60;;
4468;SDS011;2247;42.666;23.292;2023-04-25T12:53:50;5.73;;;2.00;;
4468;SDS011;2247;42.666;23.292;2023-04-25T12:56:19;2.00;;;1.90;;
4468;SDS011;2247;42.666;23.292;2023-04-25T12:58:46;12.53;;;2.57;;
4468;SDS011;2247;42.666;23.292;2023-04-25T13:01:13;1.83;;;1.73;;
4468;SDS011;2247;42.666;23.292;2023-04-25T13:03:40;2.60;;;1.30;;
4468;SDS011;2247;42.666;23.292;2023-04-25T13:06:06;2.20;;;1.27;;
4468;SDS011;2247;42.666;23.292;2023-04-25T13:08:34;1.60;;;1.50;;
4468;SDS011;2247;42.666;23.292;2023-04-25T13:11:02;1.60;;;1.50;;
4468;SDS011;2247;42.666;23.292;2023-04-25T13:13:30;4.50;;;1.70;;
4468;SDS011;2247;42.666;23.292;2023-04-25T13:15:59;3.40;;;1.90;;
4468;SDS011;2247;42.666;23.292;2023-04-25T13:18:27;4.97;;;2.30;;
4468;SDS011;2247;42.666;23.292;2023-04-25T13:20:54;9.93;;;3.00;;
4468;SDS011;2247;42.666;23.292;2023-04-25T13:23:21;3.70;;;2.43;;
4468;SDS011;2247;42.666;23.292;2023-04-25T13:25:48;3.70;;;2.47;;
4468;SDS011;2247;42.666;23.292;2023-04-25T13:28:15;6.33;;;2.57;;
4468;SDS011;2247;42.666;23.292;2023-04-25T13:30:44;4.93;;;2.10;;
4468;SDS011;2247;42.666;23.292;2023-04-25T13:33:12;6.83;;;2.33;;
4468;SDS011;2247;42.666;23.292;2023-04-25T13:35:39;3.83;;;2.07;;
4468;SDS011;2247;42.666;23.292;2023-04-25T13:38:07;2.13;;;1.90;;
4468;SDS011;2247;42.666;23.292;2023-04-25T13:40:34;2.63;;;2.43;;
4468;SDS011;2247;42.666;23.292;2023-04-25T13:43:01;2.20;;;1.83;;
4468;SDS011;2247;42.666;23.292;2023-04-25T13:45:31;2.47;;;2.10;;
4468;SDS011;2247;42.666;23.292;2023-04-25T13:47:59;6.80;;;1.70;;
4468;SDS011;2247;42.666;23.292;2023-04-25T13:50:26;2.43;;;1.50;;
4468;SDS011;2247;42.666;23.292;2023-04-25T13:52:53;1.50;;;1.40;;
4468;SDS011;2247;42.666;23.292;2023-04-25T13:55:20;2.00;;;1.43;;
4468;SDS011;2247;42.666;23.292;2023-04-25T13:57:47;2.33;;;1.50;;
4468;SDS011;2247;42.666;23.292;2023-04-25T14:00:14;1.60;;;1.50;;
4468;SDS011;2247;42.666;23.292;2023-04-25T14:02:42;1.40;;;1.30;;
4468;SDS011;2247;42.666;23.292;2023-04-25T14:05:10;1.40;;;1.30;;
4468;SDS011;2247;42.666;23.292;2023-04-25T14:07:38;2.10;;;1.30;;
4468;SDS011;2247;42.666;23.292;2023-04-25T14:10:05;1.60;;;1.50;;
4468;SDS011;2247;42.666;23.292;2023-04-25T14:12:32;3.93;;;2.93;;
4468;SDS011;2247;42.666;23.292;2023-04-25T14:15:00;8.60;;;5.30;;
4468;SDS011;2247;42.666;23.292;2023-04-25T14:17:27;6.77;;;4.00;;
4468;SDS011;2247;42.666;23.292;2023-04-25T14:19:54;2.37;;;1.90;;
4468;SDS011;2247;42.666;23.292;2023-04-25T14:22:23;2.00;;;1.30;;
4468;SDS011;2247;42.666;23.292;2023-04-25T14:24:50;2.10;;;1.90;;
4468;SDS011;2247;42.666;23.292;2023-04-25T14:27:17;1.90;;;1.80;;
4468;SDS011;2247;42.666;23.292;2023-04-25T14:29:44;1.90;;;1.80;;
4468;SDS011;2247;42.666;23.292;2023-04-25T14:32:11;2.60;;;1.90;;
4468;SDS011;2247;42.666;23.292;2023-04-25T14:34:38;2.57;;;1.50;;
4468;SDS011;2247;42.666;23.292;2023-04-25T14:37:05;2.00;;;1.80;;
4468;SDS011;2247;42.666;23.292;2023-04-25T14:39:33;1.80;;;1.70;;
4468;SDS011;2247;42.666;23.292;2023-04-25T14:42:00;1.90;;;1.80;;
4468;SDS011;2247;42.666;23.292;2023-04-25T14:44:27;3.07;;;1.87;;
4468;SDS011;2247;42.666;23.292;2023-04-25T14:46:54;1.37;;;1.27;;
4468;SDS011;2247;42.666;23.292;2023-04-25T14:49:22;1.63;;;1.53;;
4468;SDS011;2247;42.666;23.292;2023-04-25T14:51:49;2.37;;;1.50;;
4468;SDS011;2247;42.666;23.292;2023-04-25T14:54:16;1.93;;;1.67;;
4468;SDS011;2247;42.666;23.292;2023-04-25T14:56:45;2.00;;;1.80;;
4468;SDS011;2247;42.666;23.292;2023-04-25T14:59:12;4.00;;;2.47;;
4468;SDS011;2247;42.666;23.292;2023-04-25T15:01:39;2.63;;;2.10;;
4468;SDS011;2247;42.666;23.292;2023-04-25T15:04:06;2.63;;;1.97;;